Time;durP1;ratioP1;P1;durP2;ratioP2;P2;SDS_P1;SDS_P2;PMS_P1;PMS_P2;Temp;Humidity;BMP_temperature;BMP_pressure;BME280_temperature;BME280_humidity;BME280_pressure;Samples;Min_cycle;Max_cycle;Signal;HPM_P1;HPM_P2
2022/06/19 00:01:36;;;;;;;4.72;2.15;;;31.60;32.10;;;;;;5129651;27;45141;-74
2022/06/19 00:04:04;;;;;;;3.38;2.05;;;31.60;32.10;;;;;;5129507;27;45393;-74
2022/06/19 00:06:32;;;;;;;4.57;2.10;;;31.60;32.20;;;;;;5129287;27;45343;-74
2022/06/19 00:08:59;;;;;;;5.10;1.92;;;31.50;32.10;;;;;;5129354;27;45215;-74
2022/06/19 00:11:26;;;;;;;4.57;2.13;;;31.50;32.20;;;;;;5129644;27;45172;-74
2022/06/19 00:13:52;;;;;;;4.05;2.15;;;31.50;32.20;;;;;;5129038;27;47293;-74
2022/06/19 00:16:19;;;;;;;5.50;2.08;;;31.40;32.20;;;;;;5128859;27;45386;-74
2022/06/19 00:18:46;;;;;;;3.88;1.80;;;31.40;32.30;;;;;;5129286;27;45371;-74
2022/06/19 00:21:15;;;;;;;4.03;2.15;;;31.40;32.40;;;;;;5129524;27;45323;-74
2022/06/19 00:23:44;;;;;;;4.38;2.13;;;31.40;32.40;;;;;;5128873;27;47134;-74
2022/06/19 00:26:10;;;;;;;6.82;2.42;;;31.40;32.40;;;;;;5129129;27;45346;-75
2022/06/19 00:28:37;;;;;;;4.45;2.15;;;31.40;32.40;;;;;;5129169;27;45267;-74
2022/06/19 00:31:04;;;;;;;6.13;2.17;;;31.30;32.40;;;;;;5129320;27;45200;-74
2022/06/19 00:33:31;;;;;;;3.72;1.80;;;31.30;32.50;;;;;;5128935;27;45235;-74
2022/06/19 00:35:58;;;;;;;3.40;2.00;;;31.30;32.50;;;;;;5128658;27;45540;-73
2022/06/19 00:38:24;;;;;;;3.63;1.90;;;31.20;32.50;;;;;;5128520;27;45298;-73
2022/06/19 00:40:55;;;;;;;2.88;1.90;;;31.20;32.50;;;;;;5129181;27;45465;-73
2022/06/19 00:43:21;;;;;;;4.97;2.22;;;31.20;32.60;;;;;;5128822;27;45205;-74
2022/06/19 00:45:50;;;;;;;4.55;2.20;;;31.20;32.70;;;;;;5128693;27;45392;-74
2022/06/19 00:48:18;;;;;;;3.15;1.77;;;31.20;32.70;;;;;;5128802;27;45243;-74
2022/06/19 00:50:45;;;;;;;4.00;1.90;;;31.10;32.70;;;;;;5129135;27;45176;-73
2022/06/19 00:53:13;;;;;;;4.45;1.90;;;31.10;32.70;;;;;;5128390;27;47447;-74
2022/06/19 00:55:41;;;;;;;4.68;2.00;;;31.10;32.70;;;;;;5128386;27;45297;-74
2022/06/19 00:58:11;;;;;;;2.80;1.67;;;31.10;32.70;;;;;;5128407;27;45250;-73
2022/06/19 01:00:38;;;;;;;3.75;2.17;;;31.10;32.80;;;;;;5128574;27;45237;-73
2022/06/19 01:03:06;;;;;;;2.95;2.00;;;31.00;32.70;;;;;;5128128;27;45341;-73
2022/06/19 01:05:33;;;;;;;3.53;1.83;;;31.00;32.80;;;;;;5128289;27;45197;-73
2022/06/19 01:08:01;;;;;;;3.33;1.60;;;31.00;32.80;;;;;;5128790;27;45229;-73
2022/06/19 01:10:27;;;;;;;5.07;1.73;;;31.00;32.90;;;;;;5128687;27;45325;-73
2022/06/19 01:12:54;;;;;;;4.70;2.00;;;31.00;32.90;;;;;;5128167;27;46361;-73
2022/06/19 01:15:23;;;;;;;2.67;1.73;;;30.90;32.90;;;;;;5128214;27;45314;-73
2022/06/19 01:17:54;;;;;;;4.38;2.47;;;30.90;32.90;;;;;;5127951;27;45268;-73
2022/06/19 01:20:21;;;;;;;3.20;1.77;;;30.90;33.00;;;;;;5128435;27;45395;-73
2022/06/19 01:22:50;;;;;;;2.90;1.67;;;30.90;33.60;;;;;;5128064;27;46801;-73
2022/06/19 01:25:19;;;;;;;2.55;1.67;;;30.80;33.00;;;;;;5127754;27;45204;-73
2022/06/19 01:30:33;;;;;;;7.18;1.88;;;30.80;33.10;;;;;;5128822;27;45333;-73
2022/06/19 01:33:00;;;;;;;2.53;1.63;;;30.80;33.10;;;;;;5128078;27;45209;-73
2022/06/19 01:35:28;;;;;;;3.60;1.80;;;30.70;33.10;;;;;;5127838;27;45400;-73
2022/06/19 01:37:55;;;;;;;3.30;2.00;;;30.70;33.10;;;;;;5127979;27;45232;-73
2022/06/19 01:40:24;;;;;;;4.63;1.80;;;30.70;33.10;;;;;;5128452;27;45249;-74
2022/06/19 01:42:51;;;;;;;6.07;2.28;;;30.70;33.90;;;;;;5128005;27;46681;-73
2022/06/19 01:45:17;;;;;;;4.95;2.15;;;30.60;33.20;;;;;;5127941;27;45222;-73
2022/06/19 01:47:44;;;;;;;2.75;1.60;;;30.60;33.30;;;;;;5127990;27;45188;-73
2022/06/19 01:50:13;;;;;;;4.93;1.90;;;30.60;33.90;;;;;;5128111;27;45302;-73
2022/06/19 01:52:40;;;;;;;2.58;1.80;;;30.60;33.40;;;;;;5127772;27;47308;-73
2022/06/19 01:55:08;;;;;;;3.55;1.92;;;30.60;33.40;;;;;;5127731;27;45244;-73
2022/06/19 01:57:37;;;;;;;5.30;1.85;;;30.60;33.40;;;;;;5127771;27;45364;-73
2022/06/19 02:00:05;;;;;;;4.00;1.92;;;30.60;33.50;;;;;;5127917;27;45461;-73
2022/06/19 02:02:33;;;;;;;5.38;2.20;;;30.50;33.40;;;;;;5127530;27;45241;-73
2022/06/19 02:05:00;;;;;;;4.28;2.00;;;30.50;33.40;;;;;;5127727;27;45333;-72
2022/06/19 02:07:28;;;;;;;4.20;1.75;;;30.50;33.40;;;;;;5127576;27;45313;-73
2022/06/19 02:09:55;;;;;;;2.50;1.95;;;30.50;33.50;;;;;;5127862;27;45137;-73
2022/06/19 02:12:23;;;;;;;3.55;1.95;;;30.40;33.50;;;;;;5127357;27;45404;-73
2022/06/19 02:14:51;;;;;;;5.80;2.20;;;30.40;33.50;;;;;;5127284;27;45286;-73
2022/06/19 02:17:19;;;;;;;6.03;2.05;;;30.40;33.50;;;;;;5127470;27;45374;-73
2022/06/19 02:19:46;;;;;;;4.32;1.73;;;30.40;33.60;;;;;;5127699;27;45238;-73
2022/06/19 02:22:14;;;;;;;4.47;1.83;;;30.40;33.70;;;;;;5127186;27;46430;-73
2022/06/19 02:24:41;;;;;;;3.42;1.80;;;30.30;33.60;;;;;;5127230;27;45347;-73
2022/06/19 02:27:08;;;;;;;2.05;1.67;;;30.30;33.70;;;;;;5127085;27;45279;-72
2022/06/19 02:29:35;;;;;;;4.55;1.95;;;30.30;33.70;;;;;;5127683;27;45234;-72
2022/06/19 02:32:04;;;;;;;5.03;1.80;;;30.30;33.70;;;;;;5127112;27;46426;-72
2022/06/19 02:34:33;;;;;;;2.70;1.80;;;30.30;33.80;;;;;;5127012;27;45321;-73
2022/06/19 02:37:00;;;;;;;3.85;2.03;;;30.30;33.90;;;;;;5127347;27;45243;-72
2022/06/19 02:39:37;;;;;;;4.20;1.73;;;30.20;33.80;;;;;;5130746;27;45399;-72
2022/06/19 02:42:10;;;;;;;2.85;1.80;;;30.20;33.80;;;;;;5130608;27;45447;-72
2022/06/19 02:44:38;;;;;;;5.03;2.40;;;30.20;33.90;;;;;;5130700;27;45230;-72
2022/06/19 02:47:08;;;;;;;5.40;2.55;;;30.20;34.00;;;;;;5130785;27;45297;-72
2022/06/19 02:49:35;;;;;;;2.90;1.75;;;30.10;34.60;;;;;;5130971;27;45419;-72
2022/06/19 02:52:02;;;;;;;4.45;1.95;;;30.10;34.00;;;;;;5130558;27;46410;-72
2022/06/19 02:54:29;;;;;;;2.97;1.88;;;30.10;34.00;;;;;;5130658;27;45389;-73
2022/06/19 02:56:56;;;;;;;8.13;2.25;;;30.10;34.00;;;;;;5130737;27;45319;-73
2022/06/19 02:59:23;;;;;;;4.50;1.88;;;30.10;34.10;;;;;;5130781;27;45595;-73
2022/06/19 03:01:50;;;;;;;2.80;1.85;;;30.00;34.10;;;;;;5130556;27;45300;-73
2022/06/19 03:04:22;;;;;;;3.35;2.00;;;30.00;34.10;;;;;;5130429;27;45272;-73
2022/06/19 03:06:49;;;;;;;4.32;1.60;;;30.00;34.20;;;;;;5130681;27;45285;-73
2022/06/19 03:09:15;;;;;;;3.13;1.75;;;30.00;34.80;;;;;;5130800;27;45146;-73
2022/06/19 03:11:42;;;;;;;5.90;1.77;;;30.00;34.20;;;;;;5130166;27;46403;-73
2022/06/19 03:14:09;;;;;;;4.50;1.85;;;30.00;34.30;;;;;;5130392;27;45247;-73
2022/06/19 03:16:36;;;;;;;3.72;1.92;;;30.00;34.30;;;;;;5130097;27;45341;-73
2022/06/19 03:19:03;;;;;;;4.05;2.00;;;29.90;34.30;;;;;;5130498;27;45290;-73
2022/06/19 03:21:31;;;;;;;3.92;1.85;;;29.90;34.30;;;;;;5129897;27;46432;-73
2022/06/19 03:23:58;;;;;;;3.80;1.83;;;29.90;34.30;;;;;;5130080;27;45156;-73
2022/06/19 03:26:26;;;;;;;4.93;1.73;;;29.90;34.40;;;;;;5130279;27;45304;-73
2022/06/19 03:28:53;;;;;;;4.43;1.92;;;29.90;34.30;;;;;;5130433;27;45266;-73
2022/06/19 03:31:21;;;;;;;4.53;2.10;;;29.80;34.30;;;;;;5129900;27;46449;-73
2022/06/19 03:33:48;;;;;;;3.45;1.92;;;29.80;34.40;;;;;;5129937;27;45369;-73
2022/06/19 03:36:15;;;;;;;4.32;1.85;;;29.80;34.40;;;;;;5130002;27;45165;-73
2022/06/19 03:38:43;;;;;;;2.92;1.55;;;29.80;34.40;;;;;;5129882;27;45225;-73
2022/06/19 03:41:10;;;;;;;3.22;1.85;;;29.80;34.40;;;;;;5129480;27;46424;-73
2022/06/19 03:43:37;;;;;;;2.67;1.70;;;29.80;34.40;;;;;;5129645;27;45246;-74
2022/06/19 03:46:07;;;;;;;3.97;1.90;;;29.70;34.40;;;;;;5129898;27;45160;-73
2022/06/19 03:48:34;;;;;;;2.97;1.67;;;29.70;34.40;;;;;;5129445;27;45287;-73
2022/06/19 03:51:01;;;;;;;3.20;1.67;;;29.70;34.40;;;;;;5129512;27;46426;-73
2022/06/19 03:53:28;;;;;;;4.15;1.85;;;29.70;34.40;;;;;;5129689;27;45133;-73
2022/06/19 03:55:56;;;;;;;3.95;2.33;;;29.70;34.50;;;;;;5129765;27;45202;-73
2022/06/19 03:58:23;;;;;;;4.65;1.95;;;29.70;35.10;;;;;;5129874;27;45327;-73
2022/06/19 04:00:49;;;;;;;3.05;1.83;;;29.70;34.50;;;;;;5129316;27;45302;-73
2022/06/19 04:03:16;;;;;;;1.83;1.50;;;29.70;34.50;;;;;;5129444;27;45271;-73
2022/06/19 04:05:43;;;;;;;3.75;1.95;;;29.60;34.40;;;;;;5129460;27;45314;-73
2022/06/19 04:08:10;;;;;;;2.92;1.48;;;29.70;34.50;;;;;;5129286;27;45579;-74
2022/06/19 04:10:37;;;;;;;2.97;2.00;;;29.70;34.50;;;;;;5129179;27;46419;-74
2022/06/19 04:13:05;;;;;;;3.15;1.70;;;29.70;34.50;;;;;;5129237;27;45348;-73
2022/06/19 04:15:32;;;;;;;2.55;1.55;;;29.60;34.50;;;;;;5129225;27;45234;-73
2022/06/19 04:17:59;;;;;;;5.28;2.03;;;29.60;34.50;;;;;;5129223;27;45399;-73
2022/06/19 04:20:26;;;;;;;3.15;1.70;;;29.60;34.60;;;;;;5128922;27;45312;-73
2022/06/19 04:22:52;;;;;;;3.28;1.80;;;29.60;34.60;;;;;;5129137;27;45322;-74
2022/06/19 04:25:19;;;;;;;3.63;1.75;;;29.60;34.60;;;;;;5129391;27;45344;-74
2022/06/19 04:27:46;;;;;;;3.58;1.92;;;29.60;34.60;;;;;;5129346;27;45240;-73
2022/06/19 04:30:14;;;;;;;2.88;1.80;;;29.50;34.60;;;;;;5128826;27;46376;-73
2022/06/19 04:32:41;;;;;;;4.03;1.80;;;29.60;34.70;;;;;;5128862;27;45371;-73
2022/06/19 04:35:09;;;;;;;4.40;1.92;;;29.60;34.80;;;;;;5128868;27;45346;-73
2022/06/19 04:37:36;;;;;;;3.83;1.75;;;29.50;34.70;;;;;;5129166;27;45231;-73
2022/06/19 04:40:04;;;;;;;2.22;1.60;;;29.50;34.80;;;;;;5128576;27;46407;-73
2022/06/19 04:42:30;;;;;;;4.63;1.80;;;29.50;34.80;;;;;;5128846;27;45247;-73
2022/06/19 04:44:58;;;;;;;3.70;2.10;;;29.50;34.80;;;;;;5128891;27;45340;-73
2022/06/19 04:47:26;;;;;;;3.90;1.90;;;29.50;34.90;;;;;;5128834;27;45272;-73
2022/06/19 04:49:53;;;;;;;3.63;1.88;;;29.50;34.90;;;;;;5128429;27;45176;-73
2022/06/19 04:52:20;;;;;;;3.97;1.85;;;29.50;34.90;;;;;;5128511;27;45266;-73
2022/06/19 04:54:47;;;;;;;2.95;1.95;;;29.50;34.80;;;;;;5128536;27;45312;-73
2022/06/19 04:57:14;;;;;;;2.95;2.00;;;29.50;34.90;;;;;;5128806;27;45433;-73
2022/06/19 04:59:41;;;;;;;3.45;1.90;;;29.40;34.80;;;;;;5128271;27;45363;-73
2022/06/19 05:02:07;;;;;;;3.58;2.22;;;29.40;34.70;;;;;;5127611;27;45291;-73
2022/06/19 05:04:36;;;;;;;3.58;2.10;;;29.40;34.80;;;;;;5128370;27;45226;-73
2022/06/19 05:07:02;;;;;;;2.75;2.03;;;29.40;34.90;;;;;;5128615;27;45465;-73
2022/06/19 05:09:29;;;;;;;3.80;1.85;;;29.40;34.90;;;;;;5128116;27;47340;-73
2022/06/19 05:11:56;;;;;;;4.95;2.20;;;29.40;34.90;;;;;;5128246;27;45289;-74
2022/06/19 05:14:23;;;;;;;4.75;1.65;;;29.40;34.90;;;;;;5128328;27;45206;-73
2022/06/19 05:16:50;;;;;;;2.85;1.60;;;29.40;34.90;;;;;;5128168;27;45454;-74
2022/06/19 05:19:16;;;;;;;3.30;2.05;;;29.40;34.90;;;;;;5127982;27;46377;-73
2022/06/19 05:21:45;;;;;;;2.08;1.33;;;29.40;34.90;;;;;;5127951;27;45404;-73
2022/06/19 05:24:12;;;;;;;6.07;1.98;;;29.40;34.90;;;;;;5128267;27;45131;-73
2022/06/19 05:26:39;;;;;;;3.58;1.70;;;29.40;34.80;;;;;;5128305;27;45398;-73
2022/06/19 05:29:06;;;;;;;3.80;1.98;;;29.40;34.90;;;;;;5127848;27;45271;-74
2022/06/19 05:31:34;;;;;;;3.53;1.80;;;29.40;34.80;;;;;;5127813;27;45317;-74
2022/06/19 05:34:01;;;;;;;3.25;2.00;;;29.40;34.80;;;;;;5127960;27;45327;-73
2022/06/19 05:36:29;;;;;;;2.38;1.88;;;29.40;34.80;;;;;;5128180;27;45199;-73
2022/06/19 05:38:57;;;;;;;3.30;1.65;;;29.40;34.80;;;;;;5127568;27;46474;-74
2022/06/19 05:41:28;;;;;;;1.75;1.55;;;29.40;34.80;;;;;;5126329;27;45338;-73
2022/06/19 05:43:55;;;;;;;3.40;1.90;;;29.40;34.90;;;;;;5127672;27;45338;-74
2022/06/19 05:46:22;;;;;;;4.75;2.13;;;29.40;34.90;;;;;;5128050;27;45456;-73
2022/06/19 05:48:48;;;;;;;2.85;1.85;;;29.40;34.80;;;;;;5127659;27;46418;-74
2022/06/19 05:51:16;;;;;;;3.45;2.00;;;29.40;34.80;;;;;;5127519;27;45452;-74
2022/06/19 05:53:44;;;;;;;4.30;2.25;;;29.40;34.80;;;;;;5127590;27;45290;-74
2022/06/19 05:56:13;;;;;;;2.20;1.60;;;29.40;34.80;;;;;;5127799;27;45208;-73
2022/06/19 05:58:41;;;;;;;2.92;1.90;;;29.50;34.80;;;;;;5127163;27;45387;-73
2022/06/19 06:01:08;;;;;;;3.47;1.90;;;29.50;34.80;;;;;;5127366;27;45240;-73
2022/06/19 06:03:35;;;;;;;3.63;1.95;;;29.50;34.80;;;;;;5127922;27;45191;-74
2022/06/19 06:06:02;;;;;;;3.05;2.10;;;29.50;34.80;;;;;;5127877;27;45257;-74
2022/06/19 06:08:29;;;;;;;3.17;1.92;;;29.50;34.80;;;;;;5127409;27;45264;-73
2022/06/19 06:10:56;;;;;;;3.60;2.10;;;29.50;34.80;;;;;;5127385;27;45320;-73
2022/06/19 06:13:25;;;;;;;3.83;1.88;;;29.50;34.80;;;;;;5127141;27;45278;-74
2022/06/19 06:15:52;;;;;;;4.90;1.73;;;29.50;34.80;;;;;;5127341;27;45586;-73
2022/06/19 06:18:19;;;;;;;2.45;2.03;;;29.50;34.80;;;;;;5127156;27;46716;-73
2022/06/19 06:20:48;;;;;;;3.72;1.88;;;29.50;34.80;;;;;;5127092;27;45244;-74
2022/06/19 06:23:15;;;;;;;3.60;1.80;;;29.50;34.80;;;;;;5127138;27;45196;-73
2022/06/19 06:25:44;;;;;;;3.25;1.85;;;29.50;34.70;;;;;;5127510;27;45306;-74
2022/06/19 06:28:11;;;;;;;2.78;1.80;;;29.50;34.60;;;;;;5127120;27;46656;-73
2022/06/19 06:30:39;;;;;;;4.20;1.70;;;29.60;34.70;;;;;;5126974;27;45223;-74
2022/06/19 06:33:06;;;;;;;2.63;1.67;;;29.60;34.60;;;;;;5127243;27;45261;-74
2022/06/19 06:35:33;;;;;;;2.92;1.95;;;29.60;34.60;;;;;;5127333;27;45242;-74
2022/06/19 06:38:00;;;;;;;5.22;1.75;;;29.60;34.60;;;;;;5126996;27;46943;-74
2022/06/19 06:40:27;;;;;;;2.70;1.70;;;29.60;34.60;;;;;;5126887;27;45231;-74
2022/06/19 06:42:54;;;;;;;4.40;1.80;;;29.60;34.60;;;;;;5127125;27;45246;-73
2022/06/19 06:45:21;;;;;;;2.00;1.80;;;29.60;34.60;;;;;;5127130;27;45258;-73
2022/06/19 06:47:49;;;;;;;3.42;1.58;;;29.60;34.60;;;;;;5126669;27;46473;-74
2022/06/19 06:50:16;;;;;;;2.88;1.98;;;29.70;34.60;;;;;;5126835;27;45323;-73
2022/06/19 06:52:43;;;;;;;3.22;1.80;;;29.70;34.60;;;;;;5127193;27;45195;-74
2022/06/19 06:55:10;;;;;;;2.15;1.55;;;29.70;34.60;;;;;;5127239;27;45183;-73
2022/06/19 06:57:37;;;;;;;3.53;1.70;;;29.70;34.60;;;;;;5126699;27;45284;-74
2022/06/19 07:00:04;;;;;;;1.85;1.50;;;29.70;34.60;;;;;;5126392;27;45389;-74
2022/06/19 07:02:31;;;;;;;2.35;1.85;;;29.70;34.60;;;;;;5126685;27;45327;-74
2022/06/19 07:04:59;;;;;;;2.53;1.88;;;29.70;34.50;;;;;;5126988;27;45138;-73
2022/06/19 07:07:26;;;;;;;3.85;2.05;;;29.70;34.50;;;;;;5126899;27;47440;-73
2022/06/19 07:09:53;;;;;;;1.50;1.40;;;29.80;34.50;;;;;;5126515;27;45297;-74
2022/06/19 07:12:20;;;;;;;3.15;1.98;;;29.80;34.60;;;;;;5126658;27;45351;-74
2022/06/19 07:14:46;;;;;;;3.40;1.85;;;29.80;34.50;;;;;;5126785;27;45274;-74
2022/06/19 07:17:13;;;;;;;2.25;1.50;;;29.90;34.70;;;;;;5125478;27;45014;-73
2022/06/19 07:19:40;;;;;;;2.90;1.83;;;29.90;34.60;;;;;;5126554;27;45254;-74
2022/06/19 07:22:08;;;;;;;2.78;1.58;;;29.90;34.60;;;;;;5126606;27;45330;-74
2022/06/19 07:24:35;;;;;;;2.25;1.70;;;29.90;34.50;;;;;;5128675;27;45355;-74
2022/06/19 07:27:02;;;;;;;1.92;1.60;;;29.90;34.50;;;;;;5129912;27;46387;-74
2022/06/19 07:29:29;;;;;;;2.15;1.92;;;29.90;34.50;;;;;;5129935;27;45233;-74
2022/06/19 07:31:56;;;;;;;2.05;1.83;;;30.00;34.60;;;;;;5129973;27;45276;-74
2022/06/19 07:34:23;;;;;;;2.90;1.92;;;30.00;34.50;;;;;;5129970;27;45402;-74
2022/06/19 07:36:49;;;;;;;2.85;1.60;;;30.00;34.50;;;;;;5129770;27;45487;-74
2022/06/19 07:39:19;;;;;;;3.30;1.92;;;30.00;34.50;;;;;;5129752;27;45319;-74
2022/06/19 07:41:46;;;;;;;2.20;2.03;;;30.00;34.70;;;;;;5129763;27;45204;-75
2022/06/19 07:44:12;;;;;;;2.53;1.63;;;30.00;34.70;;;;;;5129984;27;45390;-74
2022/06/19 07:50:09;;;;;;;2.53;1.58;;;30.10;34.60;;;;;;5129810;27;46327;-74
2022/06/19 07:52:10;;;;;;;1.75;1.38;;;30.10;34.50;;;;;;5129271;27;45322;-75
2022/06/19 07:54:38;;;;;;;4.43;1.88;;;30.20;34.60;;;;;;5129809;27;45438;-74
2022/06/19 07:57:06;;;;;;;3.42;2.30;;;30.20;34.60;;;;;;5129411;27;46401;-74
2022/06/19 07:59:33;;;;;;;3.65;1.60;;;30.20;34.50;;;;;;5129340;27;45320;-74
2022/06/19 08:02:00;;;;;;;2.00;1.80;;;30.20;34.60;;;;;;5129401;27;45161;-74
2022/06/19 08:04:26;;;;;;;2.30;1.70;;;30.30;34.70;;;;;;5129713;27;45304;-75
2022/06/19 08:06:53;;;;;;;2.60;1.85;;;30.30;34.70;;;;;;5129200;27;45253;-75
2022/06/19 08:09:20;;;;;;;3.47;1.92;;;30.30;34.70;;;;;;5129266;27;45180;-74
2022/06/19 08:11:48;;;;;;;2.28;1.60;;;30.30;34.70;;;;;;5129526;27;45302;-75
2022/06/19 08:14:15;;;;;;;2.17;1.70;;;30.30;34.70;;;;;;5129403;27;45398;-74
2022/06/19 08:16:42;;;;;;;2.10;1.90;;;30.40;34.70;;;;;;5128643;27;45191;-74
2022/06/19 08:19:09;;;;;;;2.05;1.85;;;30.40;34.70;;;;;;5129185;27;45196;-74
2022/06/19 08:21:36;;;;;;;3.53;1.95;;;30.40;34.70;;;;;;5129114;27;45282;-75
2022/06/19 08:24:03;;;;;;;2.42;1.70;;;30.50;34.70;;;;;;5129345;27;45583;-74
2022/06/19 08:26:29;;;;;;;3.28;1.60;;;30.50;34.70;;;;;;5128868;27;46396;-74
2022/06/19 08:29:00;;;;;;;2.47;1.60;;;30.50;34.70;;;;;;5128931;27;45310;-74
2022/06/19 08:31:27;;;;;;;1.77;1.60;;;30.50;34.70;;;;;;5129445;27;45373;-75
2022/06/19 08:33:54;;;;;;;2.22;2.03;;;30.50;34.50;;;;;;5129121;27;45458;-74
2022/06/19 08:36:20;;;;;;;1.67;1.45;;;30.60;34.70;;;;;;5128811;27;47330;-74
2022/06/19 08:38:49;;;;;;;1.90;1.70;;;30.60;34.70;;;;;;5129580;27;45192;-74
2022/06/19 08:41:40;;;;;;;2.67;2.05;;;30.60;34.60;;;;;;5129103;27;45192;-74
2022/06/19 08:44:26;;;;;;;1.85;1.75;;;30.60;34.70;;;;;;5130069;27;45429;-73
2022/06/19 08:46:58;;;;;;;2.50;1.85;;;30.70;34.80;;;;;;5129871;27;45345;-74
2022/06/19 08:49:34;;;;;;;2.85;2.15;;;30.70;34.60;;;;;;5131442;27;45428;-74
2022/06/19 08:52:08;;;;;;;2.53;2.08;;;30.70;34.70;;;;;;5131322;27;45323;-74
2022/06/19 08:54:46;;;;;;;3.25;1.90;;;30.80;34.60;;;;;;5134500;27;45283;-75
2022/06/19 08:57:17;;;;;;;2.65;1.95;;;30.80;34.60;;;;;;5130785;27;45237;-74
2022/06/19 08:59:55;;;;;;;2.72;1.80;;;30.90;34.60;;;;;;5132351;27;45243;-74
2022/06/19 09:02:29;;;;;;;2.30;2.10;;;30.90;34.60;;;;;;5131187;27;45199;-76
2022/06/19 09:07:50;;;;;;;3.55;3.00;;;30.90;34.90;;;;;;5128143;27;45337;-75
2022/06/19 09:10:23;;;;;;;3.42;3.13;;;31.00;35.90;;;;;;5131095;27;45323;-75
2022/06/19 09:12:59;;;;;;;8.88;3.92;;;31.10;36.30;;;;;;5131289;27;45327;-75
2022/06/19 09:15:31;;;;;;;5.82;4.38;;;31.10;37.00;;;;;;5130890;27;45467;-75
2022/06/19 09:18:01;;;;;;;7.13;4.95;;;31.20;37.20;;;;;;5131364;27;46734;-75
2022/06/19 09:20:34;;;;;;;8.68;5.45;;;31.30;37.80;;;;;;5129116;27;45344;-74
2022/06/19 09:23:32;;;;;;;11.25;6.05;;;31.30;38.10;;;;;;5128831;27;45318;-74
2022/06/19 09:26:01;;;;;;;9.02;6.07;;;31.40;38.30;;;;;;5103470;27;45497;-75
2022/06/19 09:28:30;;;;;;;6.95;5.80;;;31.50;38.60;;;;;;5128704;27;47335;-74
2022/06/19 09:31:01;;;;;;;6.78;5.45;;;31.50;38.30;;;;;;5130183;27;45408;-74
2022/06/19 09:33:30;;;;;;;7.30;5.95;;;31.60;38.60;;;;;;5128880;27;45193;-74
2022/06/19 09:36:00;;;;;;;8.88;6.05;;;31.60;38.70;;;;;;5128743;27;45427;-74
2022/06/19 09:38:31;;;;;;;11.60;6.00;;;31.70;38.70;;;;;;5128490;27;46368;-74
2022/06/19 09:41:00;;;;;;;6.30;5.68;;;31.80;38.80;;;;;;5128258;27;45410;-74
2022/06/19 09:43:29;;;;;;;8.18;5.75;;;31.80;38.70;;;;;;5128866;27;45252;-74
2022/06/19 09:45:59;;;;;;;8.60;5.93;;;31.80;38.40;;;;;;5128784;27;45317;-74
2022/06/19 09:48:27;;;;;;;12.05;6.25;;;31.90;38.10;;;;;;5127566;27;47466;-71
2022/06/19 09:50:56;;;;;;;12.30;6.30;;;32.00;38.30;;;;;;5127836;27;45430;-74
2022/06/19 09:53:37;;;;;;;10.43;6.65;;;32.00;38.20;;;;;;5128729;27;45227;-74
2022/06/19 09:56:08;;;;;;;10.77;6.13;;;32.00;37.80;;;;;;5129868;27;45347;-74
2022/06/19 09:58:37;;;;;;;12.55;7.07;;;32.10;37.40;;;;;;5128776;27;46776;-74
2022/06/19 10:01:06;;;;;;;9.98;6.47;;;32.20;37.40;;;;;;5129128;27;45446;-76
2022/06/19 10:03:35;;;;;;;12.38;7.30;;;32.20;37.70;;;;;;5119741;27;45417;-78
2022/06/19 10:06:04;;;;;;;9.10;6.50;;;32.20;40.20;;;;;;5110908;27;45460;-75
2022/06/19 10:08:33;;;;;;;6.97;6.30;;;32.30;40.10;;;;;;5111582;27;45914;-73
2022/06/19 10:11:03;;;;;;;11.50;6.43;;;32.40;39.20;;;;;;5114570;27;45203;-74
2022/06/19 10:13:31;;;;;;;9.98;6.68;;;32.50;39.30;;;;;;5121637;27;45260;-73
2022/06/19 10:15:59;;;;;;;10.15;7.20;;;32.60;39.50;;;;;;5107577;27;45525;-75
2022/06/19 10:18:29;;;;;;;10.27;6.85;;;32.60;39.70;;;;;;5121271;27;45295;-76
2022/06/19 10:20:59;;;;;;;10.05;6.63;;;32.70;38.30;;;;;;5128235;27;45275;-75
2022/06/19 10:23:45;;;;;;;11.38;7.00;;;32.70;38.40;;;;;;5130477;27;45261;-74
2022/06/19 10:26:20;;;;;;;8.75;6.82;;;32.80;38.40;;;;;;5129474;27;45440;-73
2022/06/19 10:29:11;;;;;;;11.75;7.65;;;32.90;38.70;;;;;;5128768;27;46356;-72
2022/06/19 10:31:49;;;;;;;9.48;6.50;;;33.00;39.90;;;;;;5122755;27;45374;-75
2022/06/19 10:34:22;;;;;;;9.18;7.10;;;33.00;40.10;;;;;;5128515;27;45139;-76
2022/06/19 10:36:54;;;;;;;10.10;7.15;;;33.10;39.70;;;;;;5128622;27;45399;-76
2022/06/19 10:39:28;;;;;;;8.82;6.95;;;33.20;40.20;;;;;;5128215;27;46744;-75
2022/06/19 10:42:01;;;;;;;10.07;7.22;;;33.20;39.40;;;;;;5127875;27;45325;-75
2022/06/19 10:44:33;;;;;;;10.65;7.90;;;33.30;39.00;;;;;;5128309;27;45254;-75
2022/06/19 10:47:06;;;;;;;11.32;7.25;;;33.40;38.90;;;;;;5128402;27;45161;-76
2022/06/19 10:49:37;;;;;;;9.60;7.20;;;33.40;39.20;;;;;;5127765;27;45288;-76
2022/06/19 10:52:08;;;;;;;10.13;7.25;;;33.50;37.40;;;;;;5127958;27;45386;-75
2022/06/19 10:54:47;;;;;;;10.43;7.05;;;33.50;36.90;;;;;;5127993;27;45202;-75
2022/06/19 10:57:16;;;;;;;11.00;7.15;;;33.60;36.40;;;;;;5128367;27;45313;-75
2022/06/19 10:59:43;;;;;;;8.65;6.93;;;33.60;36.00;;;;;;5129848;27;46413;-75
2022/06/19 11:05:02;;;;;;;10.02;6.90;;;33.70;35.50;;;;;;5109604;27;45214;-76
2022/06/19 11:07:30;;;;;;;8.20;6.65;;;33.70;35.50;;;;;;5131476;27;45404;-76
2022/06/19 11:09:57;;;;;;;10.88;7.13;;;33.70;35.30;;;;;;5130916;27;46476;-76
2022/06/19 11:12:34;;;;;;;9.98;7.03;;;33.80;35.10;;;;;;5131264;27;45271;-75
2022/06/19 11:15:04;;;;;;;10.57;6.95;;;33.80;35.00;;;;;;5131442;27;45309;-76
2022/06/19 11:17:33;;;;;;;10.43;7.15;;;33.80;34.90;;;;;;5131198;27;45476;-75
2022/06/19 11:20:18;;;;;;;11.10;6.43;;;33.90;34.80;;;;;;5131466;27;46539;-75
2022/06/19 11:22:45;;;;;;;9.25;6.93;;;33.90;34.80;;;;;;5131037;27;45276;-75
2022/06/19 11:25:25;;;;;;;12.88;7.30;;;34.10;34.80;;;;;;5130969;27;45309;-75
2022/06/19 11:27:51;;;;;;;11.45;7.50;;;34.10;34.60;;;;;;5131106;27;45303;-76
2022/06/19 11:30:27;;;;;;;12.90;7.10;;;34.20;34.50;;;;;;5131680;27;45521;-76
2022/06/19 11:32:53;;;;;;;8.57;6.90;;;34.20;34.40;;;;;;5131037;27;45326;-76
2022/06/19 11:35:22;;;;;;;12.23;6.97;;;34.30;34.40;;;;;;5132129;27;45385;-75
2022/06/19 11:37:51;;;;;;;9.95;6.72;;;34.40;34.00;;;;;;5131146;27;45409;-76
2022/06/19 11:40:19;;;;;;;14.32;7.18;;;34.50;34.00;;;;;;5132022;27;45196;-75
2022/06/19 11:42:48;;;;;;;9.75;7.38;;;34.50;33.90;;;;;;5134412;27;45245;-75
2022/06/19 11:45:23;;;;;;;9.15;7.00;;;34.50;33.50;;;;;;5133039;27;45150;-75
2022/06/19 11:48:00;;;;;;;8.88;7.00;;;34.50;33.30;;;;;;5133546;27;45194;-75
2022/06/19 11:50:38;;;;;;;11.95;6.95;;;34.60;33.50;;;;;;5132424;27;45271;-76
2022/06/19 11:53:12;;;;;;;11.88;7.32;;;34.60;33.40;;;;;;5132589;27;45251;-76
2022/06/19 11:55:41;;;;;;;12.18;7.70;;;34.70;33.10;;;;;;5132209;27;45193;-75
2022/06/19 11:58:16;;;;;;;8.80;7.10;;;34.80;33.20;;;;;;5132258;27;45247;-75
2022/06/19 12:00:45;;;;;;;12.20;7.80;;;34.80;33.20;;;;;;5132365;27;46386;-75
2022/06/19 12:03:26;;;;;;;10.82;7.63;;;34.90;33.20;;;;;;5131923;27;45253;-75
2022/06/19 12:05:55;;;;;;;10.98;7.10;;;35.00;33.10;;;;;;5132501;27;45321;-75
2022/06/19 12:08:23;;;;;;;10.30;7.25;;;35.00;32.90;;;;;;5132139;27;45446;-75
2022/06/19 12:10:54;;;;;;;10.00;7.43;;;35.10;32.40;;;;;;5131609;27;46469;-74
2022/06/19 12:13:23;;;;;;;14.18;7.38;;;35.20;32.20;;;;;;5132348;27;45202;-75
2022/06/19 12:15:55;;;;;;;10.85;7.53;;;35.30;32.40;;;;;;5132023;27;45177;-75
2022/06/19 12:18:22;;;;;;;11.52;7.60;;;35.30;32.00;;;;;;5131812;27;45399;-73
2022/06/19 12:20:59;;;;;;;9.05;7.35;;;35.40;31.80;;;;;;5131589;27;45183;-75
2022/06/19 12:23:26;;;;;;;11.07;7.32;;;35.50;32.00;;;;;;5131979;27;45268;-75
2022/06/19 12:26:00;;;;;;;9.60;7.18;;;35.50;32.00;;;;;;5131310;27;45267;-74
2022/06/19 12:28:31;;;;;;;10.18;7.45;;;35.60;31.70;;;;;;5130569;27;45336;-75
2022/06/19 12:31:00;;;;;;;9.93;7.55;;;35.70;31.40;;;;;;5129835;27;45348;-75
2022/06/19 12:33:28;;;;;;;11.23;7.38;;;35.70;31.30;;;;;;5130111;27;45376;-76
2022/06/19 12:35:56;;;;;;;10.35;7.18;;;35.80;31.20;;;;;;5130049;27;45273;-76
2022/06/19 12:38:24;;;;;;;9.20;7.28;;;35.90;31.20;;;;;;5130140;27;45310;-76
2022/06/19 12:41:03;;;;;;;10.98;6.97;;;36.00;31.20;;;;;;5129390;27;46804;-77
2022/06/19 12:43:34;;;;;;;12.15;7.45;;;36.00;30.40;;;;;;5129620;27;45364;-76
2022/06/19 12:46:00;;;;;;;14.73;7.60;;;36.10;30.60;;;;;;5129928;27;45548;-76
2022/06/19 12:48:38;;;;;;;12.27;7.07;;;36.10;30.30;;;;;;5129625;27;45316;-75
2022/06/19 12:51:08;;;;;;;9.48;6.68;;;36.10;30.00;;;;;;5129480;27;47288;-76
2022/06/19 12:53:59;;;;;;;11.77;6.70;;;36.10;30.00;;;;;;5129320;27;45265;-76
2022/06/19 12:56:33;;;;;;;10.02;6.95;;;36.20;29.90;;;;;;5119780;27;45515;-76
2022/06/19 12:59:27;;;;;;;11.52;6.85;;;36.20;29.80;;;;;;5129596;27;45298;-75
2022/06/19 13:01:56;;;;;;;9.63;7.25;;;36.20;29.60;;;;;;5118964;27;46391;-75
2022/06/19 13:04:30;;;;;;;16.10;7.60;;;36.20;29.40;;;;;;5129394;27;45202;-76
2022/06/19 13:07:29;;;;;;;12.02;7.18;;;36.20;29.40;;;;;;5129327;27;45263;-76